createdAt,value
2022-08-05T06:20:56.294Z,96786.88
2022-08-05T06:23:00.005Z,96793.94
2022-08-05T06:25:59.192Z,96805.28
2022-08-05T06:28:12.623Z,96805.84
2022-08-05T06:30:04.232Z,96808.19
2022-08-05T06:32:21.117Z,96802.44
2022-08-05T06:34:24.712Z,96808.41
2022-08-05T06:36:56.661Z,96805.56
2022-08-05T06:38:55.232Z,96804.47
2022-08-05T06:40:58.292Z,96802.84
2022-08-05T06:43:02.773Z,96800.50
2022-08-05T06:45:08.367Z,96802.25
2022-08-05T06:47:30.241Z,96801.31
2022-08-05T06:50:01.566Z,96802.28
2022-08-05T06:51:59.138Z,96808.06
2022-08-05T06:54:04.095Z,96803.25
2022-08-05T06:56:07.614Z,96806.44
2022-08-05T06:58:36.351Z,96810.31
2022-08-05T07:00:41.115Z,96812.22
2022-08-05T07:02:44.291Z,96801.78
2022-08-05T07:04:47.305Z,96819.13
2022-08-05T07:06:50.874Z,96816.88
2022-08-05T07:08:55.252Z,96813.03
2022-08-05T07:10:58.391Z,96812.25
2022-08-05T07:13:52.473Z,96817.84
2022-08-05T07:16:01.652Z,96821.88
2022-08-05T07:18:09.073Z,96825.56
2022-08-05T07:22:36.129Z,96818.81
2022-08-05T07:24:43.867Z,96822.81
2022-08-05T07:26:55.815Z,96820.44
2022-08-05T07:28:59.704Z,96822.03
2022-08-05T07:31:02.774Z,96817.22
2022-08-05T07:33:09.313Z,96818.81
2022-08-05T07:36:03.641Z,96823.63
2022-08-05T07:37:39.449Z,96823.63
2022-08-05T07:40:03.979Z,96826.84
2022-08-05T07:42:13.861Z,96828.94
2022-08-05T07:44:19.075Z,96829.72
2022-08-05T07:46:25.287Z,96827.63
2022-08-05T07:49:02.195Z,96832.78
2022-08-05T07:50:51.647Z,96834.22
2022-08-05T07:52:54.657Z,96835.03
2022-08-05T07:54:59.066Z,96830.69
2022-08-05T07:57:17.554Z,96829.28
2022-08-05T07:59:38.159Z,96839.06
2022-08-05T08:01:52.161Z,96843.53
2022-08-05T08:04:00.732Z,96834.88
2022-08-05T08:06:04.672Z,96836.94
2022-08-05T08:08:12.447Z,96839.69
2022-08-05T08:10:20.579Z,96837.28
2022-08-05T08:12:35.370Z,96840.81
2022-08-05T08:14:40.903Z,96836.94
2022-08-05T08:16:51.140Z,96840.81
2022-08-05T08:18:56.293Z,96834.22
2022-08-05T08:21:03.926Z,96834.72
2022-08-05T08:24:01.137Z,96843.72
2022-08-05T08:26:00.537Z,96835.53
2022-08-05T08:28:01.558Z,96837.47
2022-08-05T08:30:29.672Z,96841.13
2022-08-05T08:32:28.817Z,96845.50
2022-08-05T08:34:33.285Z,96849.84
2022-08-05T08:36:47.584Z,96844.03
2022-08-05T08:38:57.586Z,96852.38
2022-08-05T08:41:06.409Z,96844.19
2022-08-05T08:45:01.602Z,96848.06
2022-08-05T08:45:38.693Z,96852.72
2022-08-05T08:48:05.835Z,96855.09
2022-08-05T08:50:30.529Z,96853.50
2022-08-05T08:52:34.390Z,96852.06
2022-08-05T08:54:37.970Z,96853.84
2022-08-05T08:56:47.923Z,96853.19
2022-08-05T08:58:52.988Z,96854.00
2022-08-05T09:00:55.957Z,96855.59
2022-08-05T09:02:59.753Z,96854.78
2022-08-05T09:05:17.233Z,96864.91
2022-08-05T09:07:28.845Z,96857.38
2022-08-05T09:09:34.726Z,96847.41
2022-08-05T09:11:50.831Z,96839.88
2022-08-05T09:14:09.683Z,96845.78
2022-08-05T09:16:21.110Z,96850.59
2022-08-05T09:18:30.265Z,96850.47
2022-08-05T09:20:37.378Z,96844.34
2022-08-05T09:23:09.077Z,96843.41
2022-08-05T09:25:24.398Z,96844.50
2022-08-05T09:28:05.139Z,96838.84
2022-08-05T09:30:09.114Z,96840.91
2022-08-05T09:32:51.103Z,96844.63
2022-08-05T09:34:51.616Z,96846.69
2022-08-05T09:36:59.324Z,96844.63
2022-08-05T09:39:16.390Z,96849.13
2022-08-05T09:41:21.493Z,96845.44
2022-08-05T09:43:41.421Z,96840.59
2022-08-05T09:46:06.728Z,96837.88
2022-08-05T09:48:26.833Z,96848.94
2022-08-05T09:50:43.962Z,96839.34
2022-08-05T09:52:48.416Z,96842.41
2022-08-05T09:54:58.931Z,96845.47
2022-08-05T09:57:02.070Z,96845.94
2022-08-05T09:59:07.373Z,96839.34
2022-08-05T10:01:15.753Z,96838.88
2022-08-05T10:03:26.175Z,96829.56
2022-08-05T10:06:04.775Z,96824.91
2022-08-05T10:08:37.385Z,96821.03
2022-08-05T10:10:38.073Z,96821.38
2022-08-05T10:12:49.943Z,96825.22
2022-08-05T10:14:54.362Z,96813.34
2022-08-05T10:17:36.804Z,96807.06
2022-08-05T10:19:59.179Z,96798.41
2022-08-05T10:21:59.061Z,96801.41
2022-08-05T10:24:09.046Z,96802.38
2022-08-05T10:26:15.020Z,96799.50
2022-08-05T10:28:28.909Z,96801.09
2022-08-05T10:31:20.102Z,96804.94
2022-08-05T10:33:03.078Z,96803.81
2022-08-05T10:35:06.981Z,96797.22
2022-08-05T10:37:12.901Z,96802.38
2022-08-05T10:39:25.170Z,96796.59
2022-08-05T10:41:50.843Z,96795.94
2022-08-05T10:43:59.382Z,96795.94
2022-08-05T10:46:06.263Z,96793.22
2022-08-05T10:48:39.613Z,96793.88
2022-08-05T10:51:01.062Z,96787.13
2022-08-05T10:53:06.233Z,96785.22
2022-08-05T10:55:11.906Z,96781.97
2022-08-05T10:57:35.043Z,96783.09
2022-08-05T11:00:03.740Z,96782.63
2022-08-05T11:02:14.009Z,96783.91
2022-08-05T11:04:26.134Z,96777.31
2022-08-05T11:06:30.844Z,96771.56
2022-08-05T11:08:37.490Z,96777.00
2022-08-05T11:10:49.998Z,96764.78
2022-08-05T11:13:03.479Z,96768.31
2022-08-05T11:15:20.252Z,96758.06
2022-08-05T11:17:59.518Z,96773.31
2022-08-05T11:20:16.629Z,96760.13
2022-08-05T11:22:42.329Z,96763.03
2022-08-05T11:24:50.805Z,96760.44
2022-08-05T11:27:37.050Z,96757.03
2022-08-05T11:30:01.609Z,96757.50
2022-08-05T11:32:27.490Z,96756.88
2022-08-05T11:34:38.257Z,96753.47
2022-08-05T11:36:52.849Z,96750.53
2022-08-05T11:38:57.825Z,96751.69
2022-08-05T11:41:34.416Z,96750.25
2022-08-05T11:44:04.349Z,96747.66
2022-08-05T11:46:14.948Z,96740.72
2022-08-05T11:48:12.542Z,96740.03
2022-08-05T11:50:18.029Z,96738.59
2022-08-05T11:52:29.545Z,96739.06
2022-08-05T11:54:36.921Z,96737.94
2022-08-05T11:56:52.203Z,96731.00
2022-08-05T11:58:55.225Z,96731.13
2022-08-05T12:01:04.629Z,96730.50
2022-08-05T12:03:29.030Z,96722.78
2022-08-05T12:05:40.186Z,96724.38
2022-08-05T12:08:07.567Z,96724.38
2022-08-05T12:10:18.341Z,96725.31
2022-08-05T12:12:23.013Z,96715.34
2022-08-05T12:14:37.369Z,96707.59
2022-08-05T12:16:45.266Z,96709.66
2022-08-05T12:18:53.104Z,96702.38
2022-08-05T12:20:56.419Z,96708.81
2022-08-05T12:23:10.945Z,96708.94
2022-08-05T12:25:14.202Z,96707.78
2022-08-05T12:27:25.356Z,96705.06
2022-08-05T12:29:37.974Z,96709.06
2022-08-05T12:31:49.837Z,96705.22
2022-08-05T12:33:58.772Z,96693.47
2022-08-05T12:36:03.401Z,96698.59
2022-08-05T12:38:11.720Z,96690.88
2022-08-05T12:40:26.579Z,96692.91
2022-08-05T12:42:31.880Z,96689.16
2022-08-05T12:44:35.153Z,96687.72
2022-08-05T12:46:41.859Z,96685.78
2022-08-05T12:48:48.594Z,96677.69
2022-08-05T12:51:21.916Z,96680.91
2022-08-05T12:53:42.238Z,96679.75
2022-08-05T12:55:50.318Z,96670.94
2022-08-05T12:58:49.882Z,96671.72
2022-08-05T13:02:00.938Z,96665.22
2022-08-05T13:02:47.169Z,96659.09
2022-08-05T13:04:55.801Z,96658.88
2022-08-05T13:07:00.446Z,96663.22
2022-08-05T13:09:12.558Z,96655.81
2022-08-05T13:11:59.634Z,96651.94
2022-08-05T13:14:06.836Z,96646.56
2022-08-05T13:16:12.501Z,96648.19
2022-08-05T13:18:20.319Z,96645.44
2022-08-05T13:20:27.002Z,96649.81
2022-08-05T13:22:34.620Z,96638.84
2022-08-05T13:24:51.231Z,96645.94
2022-08-05T13:27:01.428Z,96631.56
2022-08-05T13:29:05.380Z,96628.94
2022-08-05T13:31:14.169Z,96627.00
2022-08-05T13:34:24.606Z,96631.78
2022-08-05T13:35:47.477Z,96624.84
2022-08-05T13:37:55.493Z,96620.63
2022-08-05T13:40:13.591Z,96614.81
2022-08-05T13:42:24.238Z,96623.63
2022-08-05T13:44:28.098Z,96617.00
2022-08-05T13:48:57.269Z,96621.09
2022-08-05T13:51:07.449Z,96628.34
2022-08-05T13:53:15.741Z,96622.84
2022-08-05T13:55:41.538Z,96625.91
2022-08-05T13:57:50.792Z,96623.66
2022-08-05T13:59:59.267Z,96629.13
2022-08-05T14:02:03.889Z,96625.69
2022-08-05T14:04:26.582Z,96624.56
2022-08-05T14:06:29.645Z,96622.28
2022-08-05T14:08:33.002Z,96616.00
2022-08-05T14:10:39.492Z,96623.41
2022-08-05T14:12:48.875Z,96621.13
2022-08-05T14:14:52.156Z,96615.31
2022-08-05T14:16:55.450Z,96626.41
2022-08-05T14:19:04.296Z,96619.44
2022-08-05T14:22:07.361Z,96613.59
2022-08-05T14:23:36.435Z,96604.69
2022-08-05T14:25:45.414Z,96615.78
2022-08-05T14:27:50.957Z,96614.19
2022-08-05T14:29:53.850Z,96614.19
2022-08-05T14:32:12.365Z,96607.91
2022-08-05T14:34:18.910Z,96610.66
2022-08-05T14:36:26.917Z,96619.97
2022-08-05T14:38:34.085Z,96621.13
2022-08-05T14:40:38.743Z,96619.53
2022-08-05T14:42:43.790Z,96616.78
2022-08-05T14:44:46.833Z,96618.28
2022-08-05T14:46:49.778Z,96615.91
2022-08-05T14:48:52.730Z,96620.91
2022-08-05T14:50:55.805Z,96617.72
2022-08-05T14:53:00.163Z,96612.91
2022-08-05T14:55:04.091Z,96616.34
2022-08-05T14:57:09.555Z,96618.28
2022-08-05T14:59:18.374Z,96609.97
2022-08-05T15:01:49.118Z,96610.31
2022-08-05T15:03:47.441Z,96601.75
2022-08-05T15:06:07.979Z,96605.75
2022-08-05T15:08:18.001Z,96596.38
2022-08-05T15:10:38.405Z,96603.91
2022-08-05T15:12:59.616Z,96592.59
2022-08-05T15:15:05.973Z,96591.59
2022-08-05T15:17:47.303Z,96602.66
2022-08-05T15:19:41.956Z,96604.34
2022-08-05T15:21:52.256Z,96604.81
2022-08-05T15:23:55.441Z,96606.44
2022-08-05T15:26:02.559Z,96618.28
2022-08-05T15:28:06.263Z,96602.75
2022-08-05T15:30:14.362Z,96614.97
2022-08-05T15:32:20.812Z,96614.97
2022-08-05T15:34:32.820Z,96609.94
2022-08-05T15:36:36.638Z,96618.50
2022-08-05T15:38:42.037Z,96617.03
2022-08-05T15:41:20.716Z,96611.19
2022-08-05T15:43:19.913Z,96609.25
2022-08-05T15:45:38.025Z,96601.47
2022-08-05T15:47:43.618Z,96605.81
2022-08-05T15:49:58.515Z,96606.28
2022-08-05T15:52:12.665Z,96604.00
2022-08-05T15:54:17.401Z,96609.03
2022-08-05T15:56:20.282Z,96607.09
2022-08-05T15:58:23.397Z,96597.72
2022-08-05T16:00:32.786Z,96611.44
2022-08-05T16:02:51.095Z,96603.06
2022-08-05T16:04:54.141Z,96605.72
2022-08-05T16:06:57.139Z,96601.28
2022-08-05T16:09:01.084Z,96617.25
2022-08-05T16:11:05.014Z,96608.56
2022-08-05T16:13:07.821Z,96622.97
2022-08-05T16:15:11.384Z,96622.84
2022-08-05T16:17:23.053Z,96625.16
2022-08-05T16:20:05.747Z,96629.81
2022-08-05T16:21:59.236Z,96635.16
2022-08-05T16:24:04.598Z,96643.03
2022-08-05T16:26:12.496Z,96654.00
2022-08-05T16:28:15.866Z,96670.41
2022-08-05T16:30:25.927Z,96681.38
2022-08-05T16:32:31.411Z,96673.75
2022-08-05T16:34:34.528Z,96677.81
2022-08-05T16:36:37.417Z,96683.09
2022-08-05T16:38:45.895Z,96671.84
2022-08-05T16:41:01.442Z,96676.16
2022-08-05T16:43:04.394Z,96677.06
2022-08-05T16:46:06.234Z,96666.88
2022-08-05T16:47:36.348Z,96672.75
2022-08-05T16:49:51.878Z,96675.88
2022-08-05T16:51:57.024Z,96690.91
2022-08-05T16:54:02.515Z,96696.56
2022-08-05T16:56:09.933Z,96707.28
2022-08-05T16:58:14.587Z,96703.91
2022-08-05T17:00:25.784Z,96723.78
2022-08-05T17:02:38.948Z,96739.94
2022-08-05T17:04:43.425Z,96751.84
2022-08-05T17:06:46.217Z,96769.78
2022-08-05T17:08:56.784Z,96781.38
2022-08-05T17:11:01.577Z,96787.25
2022-08-05T17:13:04.487Z,96791.13
2022-08-05T17:15:09.251Z,96790.34
2022-08-05T17:17:14.957Z,96778.31
2022-08-05T17:19:19.672Z,96786.97
2022-08-05T17:21:23.737Z,96793.22
2022-08-05T17:24:04.267Z,96806.56
2022-08-05T17:25:50.149Z,96815.56
2022-08-05T17:27:54.813Z,96833.22
2022-08-05T17:30:00.666Z,96826.03
2022-08-05T17:32:06.702Z,96849.81
2022-08-05T17:34:11.633Z,96836.63
2022-08-05T17:36:33.643Z,96862.81
2022-08-05T17:38:40.077Z,96857.03
2022-08-05T17:40:43.980Z,96869.41
2022-08-05T17:42:51.327Z,96876.28
2022-08-05T17:44:55.659Z,96889.25
2022-08-05T17:46:58.900Z,96895.81
2022-08-05T17:49:02.365Z,96890.69
2022-08-05T17:51:09.055Z,96906.91
2022-08-05T17:53:13.724Z,96911.88
2022-08-05T17:55:17.649Z,96915.25
2022-08-05T17:57:21.327Z,96920.84
2022-08-05T17:59:24.576Z,96919.72
2022-08-05T18:01:28.729Z,96924.69
2022-08-05T18:04:04.743Z,96929.34
2022-08-05T18:06:11.682Z,96923.88
2022-08-05T18:08:17.121Z,96929.16
2022-08-05T18:10:20.861Z,96928.97
2022-08-05T18:12:24.794Z,96924.00
2022-08-05T18:14:27.985Z,96934.72
2022-08-05T18:16:31.579Z,96931.38
2022-08-05T18:18:39.562Z,96940.97
2022-08-05T18:20:42.854Z,96927.84
2022-08-05T18:22:54.630Z,96945.66
2022-08-05T18:24:59.301Z,96952.09
2022-08-05T18:27:02.148Z,96968.59
2022-08-05T18:29:05.234Z,96972.28
2022-08-05T18:31:16.049Z,96976.41
2022-08-05T18:33:22.999Z,96980.56
2022-08-05T18:35:49.464Z,96972.88
2022-08-05T18:37:50.023Z,96982.81
2022-08-05T18:41:51.013Z,96988.06
2022-08-05T18:42:22.837Z,96980.81
2022-08-05T18:44:35.072Z,96987.88
2022-08-05T18:46:38.445Z,96994.28
2022-08-05T18:48:44.348Z,97006.13
2022-08-05T18:52:05.456Z,97015.16
2022-08-05T18:53:34.710Z,97011.28
2022-08-05T18:55:47.437Z,97015.31
2022-08-05T18:57:53.929Z,97010.81
2022-08-05T19:00:03.555Z,97008.25
2022-08-05T19:02:26.475Z,97008.56
2022-08-05T19:04:30.865Z,97007.38
2022-08-05T19:06:44.491Z,97011.59
2022-08-05T19:08:48.395Z,97014.88
2022-08-05T19:10:52.784Z,97024.75
2022-08-05T19:12:59.145Z,97025.38
2022-08-05T19:15:02.704Z,97039.69
2022-08-05T19:17:06.441Z,97048.56
2022-08-05T19:19:10.895Z,97045.53
2022-08-05T19:21:15.904Z,97058.03
2022-08-05T19:24:04.480Z,97060.28
2022-08-05T19:25:43.461Z,97068.53
2022-08-05T19:27:48.155Z,97070.28
2022-08-05T19:29:52.855Z,97094.16
2022-08-05T19:31:57.392Z,97085.88
2022-08-05T19:34:00.552Z,97094.84
2022-08-05T19:36:05.937Z,97093.66
2022-08-05T19:38:09.507Z,97095.97
2022-08-05T19:40:12.929Z,97100.84
2022-08-05T19:42:18.139Z,97103.13
2022-08-05T19:44:22.509Z,97103.84
2022-08-05T19:46:29.130Z,97110.38
2022-08-05T19:48:34.215Z,97105.03
2022-08-05T19:50:38.226Z,97094.59
2022-08-05T19:52:41.428Z,97101.81
2022-08-05T19:54:44.583Z,97102.31
2022-08-05T19:56:48.295Z,97094.16
2022-08-05T19:58:54.199Z,97095.16
2022-08-05T20:00:59.009Z,97092.50
2022-08-05T20:03:02.014Z,97106.34
2022-08-05T20:05:16.679Z,97108.94
2022-08-05T20:07:48.215Z,97109.41
2022-08-05T20:09:53.845Z,97115.66
2022-08-05T20:11:58.075Z,97126.38
2022-08-05T20:14:12.693Z,97130.84
2022-08-05T20:16:24.842Z,97124.78
2022-08-05T20:18:32.718Z,97124.16
2022-08-05T20:20:38.574Z,97134.47
2022-08-05T20:22:41.639Z,97137.47
2022-08-05T20:24:47.057Z,97136.66
2022-08-05T20:26:51.897Z,97138.09
2022-08-05T20:28:57.598Z,97129.22
2022-08-05T20:31:03.785Z,97141.31
2022-08-05T20:33:09.354Z,97146.91
2022-08-05T20:35:12.407Z,97155.66
2022-08-05T20:37:24.089Z,97157.25
2022-08-05T20:39:38.501Z,97162.72
2022-08-05T20:41:44.978Z,97160.19
2022-08-05T20:43:59.684Z,97164.84
2022-08-05T20:46:06.792Z,97167.47
2022-08-05T20:48:11.396Z,97174.41
2022-08-05T20:50:19.012Z,97186.63
2022-08-05T20:52:21.854Z,97189.75
2022-08-05T20:54:25.826Z,97181.78
2022-08-05T20:56:46.917Z,97191.97
2022-08-05T20:58:52.133Z,97189.50
2022-08-05T21:00:56.761Z,97185.28
2022-08-05T21:03:06.364Z,97194.75
2022-08-05T21:05:12.108Z,97208.53
2022-08-05T21:07:15.234Z,97210.25
2022-08-05T21:09:18.599Z,97218.72
2022-08-05T21:12:08.866Z,97222.44
2022-08-05T21:13:55.717Z,97223.94
2022-08-05T21:15:59.693Z,97222.53
2022-08-05T21:18:02.501Z,97223.34
2022-08-05T21:20:10.212Z,97226.38
2022-08-05T21:22:14.959Z,97222.63
2022-08-05T21:24:20.947Z,97219.91
2022-08-05T21:26:23.991Z,97219.91
2022-08-05T21:28:32.526Z,97230.28
2022-08-05T21:30:35.341Z,97225.13
2022-08-05T21:32:38.430Z,97236.81
2022-08-05T21:34:41.342Z,97235.41
2022-08-05T21:36:46.605Z,97240.03
2022-08-05T21:38:53.449Z,97239.53
2022-08-05T21:40:56.753Z,97230.56
2022-08-05T21:43:00.715Z,97231.38
2022-08-05T21:45:10.875Z,97222.22
2022-08-05T21:47:33.036Z,97215.84
2022-08-05T21:49:48.069Z,97208.47
2022-08-05T21:52:15.743Z,97200.31
2022-08-05T21:54:28.126Z,97198.59
2022-08-05T21:56:33.925Z,97201.31
2022-08-05T21:58:42.336Z,97205.34
2022-08-05T22:00:51.792Z,97210.28
2022-08-05T22:02:54.922Z,97212.69
2022-08-05T22:04:58.643Z,97208.84
2022-08-05T22:07:01.674Z,97208.25
2022-08-05T22:09:14.045Z,97204.47
2022-08-05T22:11:19.618Z,97205.53
2022-08-05T22:14:19.511Z,97203.66
2022-08-05T22:16:11.414Z,97201.81
2022-08-05T22:18:24.880Z,97203.28
2022-08-05T22:20:28.763Z,97209.91
2022-08-05T22:22:31.820Z,97206.44
2022-08-05T22:24:57.623Z,97206.97
2022-08-05T22:28:04.840Z,97208.28
2022-08-05T22:29:57.855Z,97211.50
2022-08-05T22:32:03.302Z,97203.09
2022-08-05T22:34:07.582Z,97194.69
2022-08-05T22:36:11.274Z,97190.13
2022-08-05T22:38:19.771Z,97188.53
2022-08-05T22:40:22.733Z,97183.88
2022-08-05T22:42:27.290Z,97188.22
2022-08-05T22:44:30.760Z,97201.25
2022-08-05T22:46:33.666Z,97197.41
2022-08-05T22:48:43.908Z,97195.81
2022-08-05T22:50:46.734Z,97201.81
2022-08-05T22:52:59.189Z,97200.50
2022-08-05T22:55:04.376Z,97200.00
2022-08-05T22:57:22.578Z,97202.00
2022-08-05T22:59:47.392Z,97208.25
2022-08-05T23:01:50.931Z,97199.56
2022-08-05T23:04:09.239Z,97203.38
2022-08-05T23:06:13.103Z,97205.59
